Time;durP1;ratioP1;P1;durP2;ratioP2;P2;SDS_P1;SDS_P2;PMS_P1;PMS_P2;Temp;Humidity;BMP_temperature;BMP_pressure;BME280_temperature;BME280_humidity;BME280_pressure;Samples;Min_cycle;Max_cycle;Signal;HPM_P1;HPM_P2
2022/09/24 00:00:52;;;;;;;9.82;3.65;;;;;;;;;;5024378;28;20053;-82
2022/09/24 00:03:22;;;;;;;7.30;3.60;;;;;;;;;;5031592;28;20120;-82
2022/09/24 00:05:48;;;;;;;8.27;3.20;;;;;;;;;;5031495;28;20061;-82
2022/09/24 00:08:15;;;;;;;8.07;3.38;;;;;;;;;;5032480;28;20026;-81
2022/09/24 00:10:43;;;;;;;9.25;3.05;;;;;;;;;;5031517;28;20041;-81
2022/09/24 00:13:11;;;;;;;11.40;3.33;;;;;;;;;;5026697;28;20037;-81
2022/09/24 00:15:44;;;;;;;6.68;3.00;;;;;;;;;;5026136;28;20038;-81
2022/09/24 00:18:11;;;;;;;7.63;3.50;;;;;;;;;;5025890;28;20029;-81
2022/09/24 00:20:38;;;;;;;10.77;4.07;;;;;;;;;;5027070;28;20895;-82
2022/09/24 00:23:05;;;;;;;12.02;5.55;;;;;;;;;;5031582;28;20033;-82
2022/09/24 00:28:16;;;;;;;13.32;5.90;;;;;;;;;;5021231;28;20049;-81
2022/09/24 00:30:42;;;;;;;11.23;5.60;;;;;;;;;;5015100;28;20034;-81
2022/09/24 00:33:09;;;;;;;12.07;6.15;;;;;;;;;;5030102;28;20061;-81
2022/09/24 00:35:36;;;;;;;13.77;5.85;;;;;;;;;;5030024;28;20498;-81
2022/09/24 00:38:04;;;;;;;8.27;4.45;;;;;;;;;;5025804;28;20357;-81
2022/09/24 00:40:31;;;;;;;10.70;4.38;;;;;;;;;;5030795;28;20029;-81
2022/09/24 00:42:57;;;;;;;7.45;3.60;;;;;;;;;;5030987;28;20045;-82
2022/09/24 00:45:24;;;;;;;11.20;3.95;;;;;;;;;;5027815;28;20045;-81
2022/09/24 00:47:50;;;;;;;8.85;4.10;;;;;;;;;;5024720;28;20053;-82
2022/09/24 00:50:23;;;;;;;9.65;3.97;;;;;;;;;;5026480;28;20041;-81
2022/09/24 00:52:55;;;;;;;10.25;4.20;;;;;;;;;;5028439;28;20029;-81
2022/09/24 00:55:22;;;;;;;10.80;4.70;;;;;;;;;;5016041;28;20038;-81
2022/09/24 00:57:49;;;;;;;12.60;5.40;;;;;;;;;;5024941;28;20654;-81
2022/09/24 01:00:15;;;;;;;9.10;4.68;;;;;;;;;;5025772;28;20047;-81
2022/09/24 01:02:43;;;;;;;12.13;4.78;;;;;;;;;;5015384;28;20054;-81
2022/09/24 01:05:09;;;;;;;9.65;4.85;;;;;;;;;;5029192;28;20493;-81
2022/09/24 01:07:35;;;;;;;8.95;5.40;;;;;;;;;;5029110;28;20026;-81
2022/09/24 01:10:02;;;;;;;14.10;5.55;;;;;;;;;;5020212;28;20033;-81
2022/09/24 01:12:37;;;;;;;8.23;4.75;;;;;;;;;;5022676;28;20022;-80
2022/09/24 01:15:07;;;;;;;11.82;6.00;;;;;;;;;;5017711;28;20037;-81
2022/09/24 01:17:43;;;;;;;11.98;6.05;;;;;;;;;;5028985;28;20068;-81
2022/09/24 01:20:28;;;;;;;14.57;5.85;;;;;;;;;;5030920;28;20094;-81
2022/09/24 01:23:07;;;;;;;11.55;5.90;;;;;;;;;;5024178;28;20742;-80
2022/09/24 01:25:42;;;;;;;11.90;7.10;;;;;;;;;;5023775;28;20410;-81
2022/09/24 01:28:08;;;;;;;12.85;7.20;;;;;;;;;;5026686;28;20818;-80
2022/09/24 01:30:37;;;;;;;17.20;10.15;;;;;;;;;;5024194;28;20029;-80
2022/09/24 01:33:04;;;;;;;14.15;8.82;;;;;;;;;;5027842;28;20475;-80
2022/09/24 01:35:38;;;;;;;14.05;9.68;;;;;;;;;;5026906;28;20506;-81
2022/09/24 01:38:27;;;;;;;16.23;10.52;;;;;;;;;;5021387;28;20034;-80
2022/09/24 01:40:54;;;;;;;15.90;9.25;;;;;;;;;;5015943;28;20503;-80
2022/09/24 01:43:22;;;;;;;12.85;6.47;;;;;;;;;;5024261;28;20057;-80
2022/09/24 01:45:48;;;;;;;9.35;5.43;;;;;;;;;;5027858;28;20025;-80
2022/09/24 01:48:15;;;;;;;16.27;5.85;;;;;;;;;;5027216;28;20030;-81
2022/09/24 01:50:50;;;;;;;8.25;4.68;;;;;;;;;;5028355;28;20029;-80
2022/09/24 01:53:18;;;;;;;9.88;4.70;;;;;;;;;;5024849;28;20733;-80
2022/09/24 01:55:49;;;;;;;8.35;4.43;;;;;;;;;;5022543;28;20065;-81
2022/09/24 01:58:20;;;;;;;9.23;5.37;;;;;;;;;;5014396;28;20033;-80
2022/09/24 02:00:48;;;;;;;9.32;5.00;;;;;;;;;;5022035;28;20594;-81
2022/09/24 02:03:19;;;;;;;15.82;10.45;;;;;;;;;;5024758;28;20041;-81
2022/09/24 02:05:51;;;;;;;14.68;9.82;;;;;;;;;;5013220;28;20040;-80
2022/09/24 02:08:17;;;;;;;14.40;9.32;;;;;;;;;;5028339;28;20108;-81
2022/09/24 02:10:50;;;;;;;11.90;8.00;;;;;;;;;;5025772;28;20120;-81
2022/09/24 02:13:18;;;;;;;11.23;8.30;;;;;;;;;;5026300;28;20868;-81
2022/09/24 02:15:46;;;;;;;8.68;6.53;;;;;;;;;;5018255;28;20048;-82
2022/09/24 02:18:14;;;;;;;7.82;4.75;;;;;;;;;;5022199;28;20076;-81
2022/09/24 02:20:42;;;;;;;8.32;3.97;;;;;;;;;;5012011;28;20030;-81
2022/09/24 02:23:10;;;;;;;8.23;3.67;;;;;;;;;;5028485;28;20069;-81
2022/09/24 02:25:47;;;;;;;8.75;3.80;;;;;;;;;;5025094;28;20831;-81
2022/09/24 02:28:13;;;;;;;6.95;4.20;;;;;;;;;;5010229;28;20062;-81
2022/09/24 02:30:44;;;;;;;5.97;3.70;;;;;;;;;;5017259;28;20030;-81
2022/09/24 02:34:19;;;;;;;6.35;3.70;;;;;;;;;;5025890;28;20033;-81
2022/09/24 02:35:58;;;;;;;9.57;3.35;;;;;;;;;;5025827;28;20706;-81
2022/09/24 02:38:24;;;;;;;8.48;3.63;;;;;;;;;;5021552;28;20061;-81
2022/09/24 02:40:50;;;;;;;6.80;4.10;;;;;;;;;;5019093;28;20042;-81
2022/09/24 02:43:16;;;;;;;5.75;3.67;;;;;;;;;;5025638;28;20045;-81
2022/09/24 02:45:42;;;;;;;5.68;3.70;;;;;;;;;;5016886;28;20030;-81
2022/09/24 02:48:08;;;;;;;5.43;3.30;;;;;;;;;;5020354;28;20034;-81
2022/09/24 02:50:34;;;;;;;6.40;2.92;;;;;;;;;;5021421;28;20034;-81
2022/09/24 02:53:00;;;;;;;6.43;2.95;;;;;;;;;;5010828;28;20080;-82
2022/09/24 02:55:26;;;;;;;4.88;2.88;;;;;;;;;;5025226;28;20622;-81
2022/09/24 02:57:52;;;;;;;5.40;3.28;;;;;;;;;;5024927;28;20060;-81
2022/09/24 03:00:19;;;;;;;4.90;3.75;;;;;;;;;;5020534;28;20026;-81
2022/09/24 03:02:49;;;;;;;5.18;2.67;;;;;;;;;;5019398;28;20030;-81
2022/09/24 03:05:17;;;;;;;5.60;3.47;;;;;;;;;;5019892;28;20018;-81
2022/09/24 03:07:43;;;;;;;6.05;2.80;;;;;;;;;;5024809;28;20052;-81
2022/09/24 03:10:09;;;;;;;6.15;3.05;;;;;;;;;;5016905;28;20506;-81
2022/09/24 03:12:35;;;;;;;7.22;4.35;;;;;;;;;;5010665;28;20049;-81
2022/09/24 03:15:01;;;;;;;6.18;3.95;;;;;;;;;;5017647;28;20036;-81
2022/09/24 03:17:27;;;;;;;9.43;6.32;;;;;;;;;;5019204;28;20080;-81
2022/09/24 03:19:54;;;;;;;16.80;14.30;;;;;;;;;;5017340;28;20041;-81
2022/09/24 03:22:20;;;;;;;14.48;11.15;;;;;;;;;;5027867;28;20043;-82
2022/09/24 03:24:46;;;;;;;12.55;9.23;;;;;;;;;;5023827;28;20079;-82
2022/09/24 03:27:12;;;;;;;14.32;11.55;;;;;;;;;;5029070;28;20068;-82
2022/09/24 03:32:22;;;;;;;12.18;10.05;;;;;;;;;;5022688;28;20524;-81
2022/09/24 03:34:48;;;;;;;12.20;6.53;;;;;;;;;;5009572;28;20502;-82
2022/09/24 03:37:14;;;;;;;11.02;7.85;;;;;;;;;;5014174;28;20037;-81
2022/09/24 03:39:40;;;;;;;9.82;7.20;;;;;;;;;;5018462;28;20030;-81
2022/09/24 03:42:06;;;;;;;8.90;6.15;;;;;;;;;;5019578;28;20475;-81
2022/09/24 03:44:32;;;;;;;8.35;3.88;;;;;;;;;;5024774;28;20029;-81
2022/09/24 03:46:58;;;;;;;6.80;4.03;;;;;;;;;;5016631;28;20051;-81
2022/09/24 03:49:24;;;;;;;8.88;5.10;;;;;;;;;;5026475;28;20034;-81
2022/09/24 03:51:50;;;;;;;8.82;6.43;;;;;;;;;;5022574;28;20039;-81
2022/09/24 03:54:17;;;;;;;8.27;6.63;;;;;;;;;;5016270;28;20427;-81
2022/09/24 03:56:43;;;;;;;9.75;6.40;;;;;;;;;;5028269;28;20378;-81
2022/09/24 03:59:12;;;;;;;6.53;4.05;;;;;;;;;;5024047;28;20092;-81
2022/09/24 04:01:38;;;;;;;7.60;5.47;;;;;;;;;;5020326;28;20033;-81
2022/09/24 04:04:04;;;;;;;7.85;6.00;;;;;;;;;;5027479;28;20120;-81
2022/09/24 04:06:31;;;;;;;7.43;4.38;;;;;;;;;;5017127;28;20268;-81
2022/09/24 04:08:57;;;;;;;6.35;4.07;;;;;;;;;;5024664;28;20037;-81
2022/09/24 04:11:24;;;;;;;6.05;4.15;;;;;;;;;;5031536;28;20021;-81
2022/09/24 04:13:50;;;;;;;6.07;3.38;;;;;;;;;;5023880;28;20117;-81
2022/09/24 04:16:16;;;;;;;6.47;3.17;;;;;;;;;;5025610;28;20034;-81
2022/09/24 04:18:42;;;;;;;9.77;3.47;;;;;;;;;;5026989;28;20061;-83
2022/09/24 04:21:08;;;;;;;8.70;2.28;;;;;;;;;;5028949;28;20080;-83
2022/09/24 04:23:34;;;;;;;4.97;2.33;;;;;;;;;;5021854;28;20045;-83
2022/09/24 04:26:01;;;;;;;5.45;2.30;;;;;;;;;;5029499;28;20097;-82
2022/09/24 04:28:27;;;;;;;8.02;3.20;;;;;;;;;;5027798;28;20095;-83
2022/09/24 04:30:53;;;;;;;5.93;2.92;;;;;;;;;;5027407;28;20045;-83
2022/09/24 04:33:19;;;;;;;6.35;2.83;;;;;;;;;;5032174;28;20356;-83
2022/09/24 04:35:45;;;;;;;4.97;2.20;;;;;;;;;;5030689;28;20048;-83
2022/09/24 04:38:11;;;;;;;6.03;2.50;;;;;;;;;;5017096;28;20112;-83
2022/09/24 04:40:38;;;;;;;5.95;3.60;;;;;;;;;;5032239;28;20045;-83
2022/09/24 04:43:04;;;;;;;6.47;4.30;;;;;;;;;;5029776;28;20045;-83
2022/09/24 04:45:31;;;;;;;6.90;4.85;;;;;;;;;;5021200;28;20033;-84
2022/09/24 04:47:57;;;;;;;9.27;5.60;;;;;;;;;;5019032;28;20368;-83
2022/09/24 04:50:24;;;;;;;11.35;8.50;;;;;;;;;;5021186;28;20032;-83
2022/09/24 04:52:50;;;;;;;11.40;9.20;;;;;;;;;;5025792;28;20040;-84
2022/09/24 04:55:16;;;;;;;10.73;5.07;;;;;;;;;;5027614;28;20041;-83
2022/09/24 04:57:44;;;;;;;6.20;4.28;;;;;;;;;;5021206;28;20112;-83
2022/09/24 05:00:14;;;;;;;9.20;6.05;;;;;;;;;;5023822;28;20025;-84
2022/09/24 05:02:40;;;;;;;6.80;5.28;;;;;;;;;;5026490;28;20033;-83
2022/09/24 05:05:06;;;;;;;8.35;5.47;;;;;;;;;;5020526;28;20029;-83
2022/09/24 05:07:32;;;;;;;9.98;6.70;;;;;;;;;;5015747;28;20793;-83
2022/09/24 05:09:58;;;;;;;8.55;6.32;;;;;;;;;;5022879;28;20029;-82
2022/09/24 05:12:24;;;;;;;8.82;5.55;;;;;;;;;;5025157;28;20037;-82
2022/09/24 05:14:50;;;;;;;8.43;4.55;;;;;;;;;;5031318;28;20788;-82
2022/09/24 05:17:16;;;;;;;8.75;4.63;;;;;;;;;;5018599;28;20042;-81
2022/09/24 05:19:42;;;;;;;5.13;3.53;;;;;;;;;;5023431;28;20128;-82
2022/09/24 05:22:08;;;;;;;8.57;5.63;;;;;;;;;;5024468;28;20171;-81
2022/09/24 05:24:34;;;;;;;7.43;6.00;;;;;;;;;;5027359;28;20037;-81
2022/09/24 05:27:09;;;;;;;10.45;6.70;;;;;;;;;;5026331;28;20048;-80
2022/09/24 05:29:39;;;;;;;10.38;6.03;;;;;;;;;;5028440;28;20811;-81
2022/09/24 05:32:06;;;;;;;9.15;5.20;;;;;;;;;;5026216;28;20041;-81
2022/09/24 05:34:32;;;;;;;8.25;4.53;;;;;;;;;;5031395;28;20047;-80
2022/09/24 05:36:59;;;;;;;8.23;4.43;;;;;;;;;;5029902;28;20030;-80
2022/09/24 05:39:25;;;;;;;9.23;5.10;;;;;;;;;;5027884;28;20071;-80
2022/09/24 05:41:51;;;;;;;8.63;4.68;;;;;;;;;;5019529;28;20578;-80
2022/09/24 05:44:20;;;;;;;7.28;5.32;;;;;;;;;;5030238;28;20128;-81
2022/09/24 05:46:46;;;;;;;9.63;5.63;;;;;;;;;;5023643;28;20025;-80
2022/09/24 05:49:12;;;;;;;10.00;5.53;;;;;;;;;;5011145;28;20042;-81
2022/09/24 05:51:38;;;;;;;9.60;4.97;;;;;;;;;;5010210;28;20487;-81
2022/09/24 05:54:05;;;;;;;9.02;5.18;;;;;;;;;;5026811;28;20041;-81
2022/09/24 05:56:31;;;;;;;8.52;6.15;;;;;;;;;;5019914;28;20029;-81
2022/09/24 05:58:57;;;;;;;8.70;6.18;;;;;;;;;;5025441;28;20533;-82
2022/09/24 06:01:23;;;;;;;9.68;6.57;;;;;;;;;;5025523;28;20045;-82
2022/09/24 06:03:49;;;;;;;12.23;6.40;;;;;;;;;;5029970;28;20041;-81
2022/09/24 06:06:15;;;;;;;9.10;5.05;;;;;;;;;;5019122;28;20041;-81
2022/09/24 06:08:41;;;;;;;8.23;5.82;;;;;;;;;;5027566;28;20037;-82
2022/09/24 06:11:07;;;;;;;7.72;4.57;;;;;;;;;;5028140;28;20045;-82
2022/09/24 06:13:33;;;;;;;6.63;3.85;;;;;;;;;;5024428;28;20029;-81
2022/09/24 06:16:04;;;;;;;9.10;4.25;;;;;;;;;;5020217;28;20041;-80
2022/09/24 06:18:30;;;;;;;7.75;3.85;;;;;;;;;;5023452;28;20822;-78
2022/09/24 06:21:01;;;;;;;6.47;3.85;;;;;;;;;;5026151;28;20082;-80
2022/09/24 06:23:28;;;;;;;8.02;2.88;;;;;;;;;;5028246;28;20078;-79
2022/09/24 06:25:54;;;;;;;8.82;3.10;;;;;;;;;;5030436;28;20061;-79
2022/09/24 06:28:20;;;;;;;5.40;2.70;;;;;;;;;;5024460;28;20058;-79
2022/09/24 06:30:46;;;;;;;6.95;3.03;;;;;;;;;;5024823;28;20033;-80
2022/09/24 06:33:12;;;;;;;7.18;3.75;;;;;;;;;;5025606;28;20163;-80
2022/09/24 06:35:39;;;;;;;7.82;3.72;;;;;;;;;;5017756;28;20036;-80
2022/09/24 06:38:06;;;;;;;5.82;3.05;;;;;;;;;;5026136;28;20554;-79
2022/09/24 06:40:33;;;;;;;4.80;2.83;;;;;;;;;;5025382;28;20026;-80
2022/09/24 06:42:59;;;;;;;8.57;3.60;;;;;;;;;;5022745;28;20062;-80
2022/09/24 06:45:25;;;;;;;5.95;3.70;;;;;;;;;;5026379;28;20035;-80
2022/09/24 06:47:55;;;;;;;5.97;3.85;;;;;;;;;;5026036;28;20034;-80
2022/09/24 06:50:22;;;;;;;5.53;3.00;;;;;;;;;;5020919;28;20339;-80
2022/09/24 06:52:48;;;;;;;5.05;2.30;;;;;;;;;;5022275;28;20148;-79
2022/09/24 06:55:15;;;;;;;5.40;2.00;;;;;;;;;;5022988;28;20370;-80
2022/09/24 06:57:41;;;;;;;4.03;2.30;;;;;;;;;;5025004;28;20120;-80
2022/09/24 07:00:07;;;;;;;5.82;2.70;;;;;;;;;;5027566;28;20120;-80
2022/09/24 07:02:33;;;;;;;7.55;3.50;;;;;;;;;;5029098;28;20037;-80
2022/09/24 07:04:59;;;;;;;8.95;5.70;;;;;;;;;;5029751;28;20076;-80
2022/09/24 07:07:28;;;;;;;6.03;3.97;;;;;;;;;;5026053;28;20029;-80
2022/09/24 07:09:55;;;;;;;9.23;4.60;;;;;;;;;;5034319;28;20029;-80
2022/09/24 07:12:21;;;;;;;6.95;4.32;;;;;;;;;;5031846;28;20040;-79
2022/09/24 07:14:47;;;;;;;7.70;2.60;;;;;;;;;;5025036;28;20040;-81
2022/09/24 07:17:13;;;;;;;6.32;3.95;;;;;;;;;;5028243;28;20709;-80
2022/09/24 07:19:40;;;;;;;7.40;4.00;;;;;;;;;;5028877;28;20468;-80
2022/09/24 07:22:06;;;;;;;5.65;2.92;;;;;;;;;;5023663;28;20038;-80
2022/09/24 07:24:32;;;;;;;8.05;3.38;;;;;;;;;;5032896;28;20033;-80
2022/09/24 07:26:58;;;;;;;4.85;3.05;;;;;;;;;;5031238;28;20731;-80
2022/09/24 07:29:24;;;;;;;4.28;2.55;;;;;;;;;;5029139;28;20029;-80
2022/09/24 07:31:50;;;;;;;6.32;3.42;;;;;;;;;;5034796;28;20167;-79
2022/09/24 07:34:16;;;;;;;5.78;2.50;;;;;;;;;;5031261;28;20026;-79
2022/09/24 07:36:42;;;;;;;5.47;2.85;;;;;;;;;;5025860;28;20045;-80
2022/09/24 07:39:09;;;;;;;6.05;3.05;;;;;;;;;;5024371;28;20032;-80
2022/09/24 07:41:35;;;;;;;4.07;2.15;;;;;;;;;;5026222;28;20042;-80
2022/09/24 07:44:01;;;;;;;6.03;2.80;;;;;;;;;;5038045;28;20051;-80
2022/09/24 07:46:27;;;;;;;5.70;2.25;;;;;;;;;;5025541;28;20072;-80
2022/09/24 07:48:55;;;;;;;3.97;2.00;;;;;;;;;;5031315;28;20060;-80
2022/09/24 07:51:21;;;;;;;5.95;3.22;;;;;;;;;;5039577;28;20033;-80
2022/09/24 07:53:47;;;;;;;6.68;3.72;;;;;;;;;;5020159;28;20029;-79
2022/09/24 07:56:14;;;;;;;4.15;2.35;;;;;;;;;;5030801;28;20037;-80
2022/09/24 07:58:40;;;;;;;4.40;2.47;;;;;;;;;;5029774;28;20036;-80
2022/09/24 08:01:06;;;;;;;5.78;3.28;;;;;;;;;;5032518;28;20369;-80
2022/09/24 08:03:32;;;;;;;5.13;2.63;;;;;;;;;;5040309;28;20037;-80
2022/09/24 08:06:00;;;;;;;4.10;2.42;;;;;;;;;;5030893;28;20179;-80
2022/09/24 08:08:26;;;;;;;7.50;3.38;;;;;;;;;;5022741;28;20045;-80
2022/09/24 08:10:53;;;;;;;4.20;2.40;;;;;;;;;;5019038;28;20159;-80
2022/09/24 08:13:19;;;;;;;6.78;2.28;;;;;;;;;;5022149;28;20100;-80
2022/09/24 08:15:45;;;;;;;4.25;2.33;;;;;;;;;;5029252;28;20034;-80
2022/09/24 08:18:11;;;;;;;6.10;3.22;;;;;;;;;;5022081;28;20033;-80
2022/09/24 08:20:38;;;;;;;6.10;4.18;;;;;;;;;;5024470;28;20483;-81
2022/09/24 08:23:05;;;;;;;9.27;4.85;;;;;;;;;;5019880;28;20149;-80
2022/09/24 08:25:32;;;;;;;10.18;6.25;;;;;;;;;;5032075;28;20041;-80
2022/09/24 08:28:02;;;;;;;9.07;6.22;;;;;;;;;;5020470;28;20121;-80
2022/09/24 08:30:29;;;;;;;11.70;6.68;;;;;;;;;;5034537;28;20074;-80
2022/09/24 08:32:56;;;;;;;7.32;5.30;;;;;;;;;;5031292;28;20370;-80
2022/09/24 08:35:22;;;;;;;9.30;5.78;;;;;;;;;;5032320;28;20038;-80
2022/09/24 08:37:48;;;;;;;8.07;4.60;;;;;;;;;;5036439;28;20079;-80
2022/09/24 08:40:18;;;;;;;8.32;4.40;;;;;;;;;;5024758;28;20040;-80
2022/09/24 08:42:51;;;;;;;7.40;5.80;;;;;;;;;;5029246;28;20065;-81
2022/09/24 08:48:06;;;;;;;5.43;2.45;;;;;;;;;;5018664;28;20052;-80
2022/09/24 08:50:33;;;;;;;7.93;3.25;;;;;;;;;;5025505;28;20030;-80
2022/09/24 08:53:15;;;;;;;9.75;4.05;;;;;;;;;;5025894;28;20712;-81
2022/09/24 08:55:49;;;;;;;8.07;4.57;;;;;;;;;;5038887;28;20032;-79
2022/09/24 08:58:34;;;;;;;8.27;4.95;;;;;;;;;;5045188;28;20028;-80
2022/09/24 09:01:09;;;;;;;7.22;4.50;;;;;;;;;;5018587;28;20030;-80
2022/09/24 09:03:39;;;;;;;5.70;3.40;;;;;;;;;;5028779;28;20025;-81
2022/09/24 09:06:10;;;;;;;5.70;3.60;;;;;;;;;;5034444;28;20030;-80
2022/09/24 09:08:42;;;;;;;5.70;3.97;;;;;;;;;;5032789;28;20570;-80
2022/09/24 09:11:08;;;;;;;;;;;;;;;;;;5023819;28;20560;-81
2022/09/24 09:13:40;;;;;;;6.20;3.90;;;;;;;;;;5034074;28;19992;-80
2022/09/24 09:16:15;;;;;;;7.38;4.40;;;;;;;;;;5028884;28;20479;-80
2022/09/24 09:18:42;;;;;;;6.63;4.28;;;;;;;;;;5044495;28;20033;-80
2022/09/24 09:21:21;;;;;;;9.43;4.60;;;;;;;;;;5029744;28;20041;-80
2022/09/24 09:23:48;;;;;;;9.15;4.82;;;;;;;;;;5028222;28;20026;-80
2022/09/24 09:26:17;;;;;;;6.75;4.38;;;;;;;;;;5023091;28;20037;-80
2022/09/24 09:28:43;;;;;;;6.15;4.32;;;;;;;;;;5014427;28;20030;-80
2022/09/24 09:31:12;;;;;;;7.88;3.88;;;;;;;;;;5020363;28;20493;-80
2022/09/24 09:33:59;;;;;;;6.00;4.00;;;;;;;;;;5034248;28;20029;-81
2022/09/24 09:36:32;;;;;;;6.07;4.07;;;;;;;;;;5029654;28;20204;-80
2022/09/24 09:39:08;;;;;;;6.80;3.00;;;;;;;;;;5042806;28;20052;-80
2022/09/24 09:41:48;;;;;;;7.35;3.75;;;;;;;;;;5025523;28;20076;-80
2022/09/24 09:44:17;;;;;;;8.98;3.72;;;;;;;;;;5032402;28;20041;-81
2022/09/24 09:46:48;;;;;;;5.18;3.38;;;;;;;;;;5027466;28;20029;-82
2022/09/24 09:49:15;;;;;;;6.95;4.45;;;;;;;;;;5034032;28;20033;-81
2022/09/24 09:51:42;;;;;;;8.30;4.15;;;;;;;;;;5033694;28;20497;-81
2022/09/24 09:54:08;;;;;;;5.60;3.40;;;;;;;;;;5033713;28;20037;-81
2022/09/24 09:56:42;;;;;;;7.10;3.80;;;;;;;;;;5021118;28;20036;-82
2022/09/24 09:59:17;;;;;;;6.47;3.20;;;;;;;;;;5033530;28;20029;-81
2022/09/24 10:01:45;;;;;;;6.03;3.67;;;;;;;;;;5020176;28;20375;-81
2022/09/24 10:04:27;;;;;;;7.03;4.30;;;;;;;;;;5030770;28;20054;-82
2022/09/24 10:07:03;;;;;;;6.32;4.18;;;;;;;;;;5037200;28;20017;-81
2022/09/24 10:09:29;;;;;;;7.47;3.67;;;;;;;;;;5035109;28;20454;-82
2022/09/24 10:12:05;;;;;;;4.65;3.08;;;;;;;;;;5028644;28;20037;-80
2022/09/24 10:14:31;;;;;;;5.60;3.00;;;;;;;;;;5028075;28;20029;-81
2022/09/24 10:17:04;;;;;;;5.95;3.38;;;;;;;;;;5028025;28;20509;-81
2022/09/24 10:19:32;;;;;;;6.40;3.28;;;;;;;;;;5028166;28;20564;-79
2022/09/24 10:21:58;;;;;;;5.95;3.40;;;;;;;;;;5033547;28;20044;-81
2022/09/24 10:24:26;;;;;;;7.68;3.17;;;;;;;;;;5033016;28;20033;-82
2022/09/24 10:26:52;;;;;;;3.95;2.20;;;;;;;;;;5033076;28;20048;-82
2022/09/24 10:32:18;;;;;;;6.75;3.65;;;;;;;;;;5024310;28;20238;-81
2022/09/24 10:34:55;;;;;;;6.20;3.50;;;;;;;;;;5020332;28;20037;-79
2022/09/24 10:37:21;;;;;;;6.70;4.88;;;;;;;;;;5026535;28;20034;-79
2022/09/24 10:39:56;;;;;;;7.38;4.10;;;;;;;;;;5022113;28;20040;-79
2022/09/24 10:42:26;;;;;;;5.53;2.47;;;;;;;;;;5025458;28;20045;-79
2022/09/24 10:44:53;;;;;;;4.55;2.20;;;;;;;;;;5034623;28;20041;-79
2022/09/24 10:47:25;;;;;;;4.53;2.35;;;;;;;;;;5023852;28;20030;-79
2022/09/24 10:49:50;;;;;;;4.95;1.98;;;;;;;;;;5017058;28;20033;-80
2022/09/24 10:52:35;;;;;;;5.75;1.80;;;;;;;;;;5020380;28;20064;-80
2022/09/24 10:55:10;;;;;;;4.93;2.20;;;;;;;;;;5020533;28;20108;-79
2022/09/24 10:57:51;;;;;;;4.55;2.40;;;;;;;;;;5026638;28;20033;-79
2022/09/24 11:00:36;;;;;;;5.55;2.55;;;;;;;;;;5026152;28;20143;-80
2022/09/24 11:03:05;;;;;;;5.35;2.45;;;;;;;;;;5019441;28;20360;-79
2022/09/24 11:05:35;;;;;;;4.80;2.40;;;;;;;;;;5028115;28;20155;-79
2022/09/24 11:08:07;;;;;;;4.65;2.30;;;;;;;;;;5025402;28;20083;-79
2022/09/24 11:10:34;;;;;;;5.15;2.42;;;;;;;;;;5026956;28;20684;-79
2022/09/24 11:13:03;;;;;;;6.95;2.25;;;;;;;;;;5024426;28;20341;-79
2022/09/24 11:15:38;;;;;;;5.30;2.42;;;;;;;;;;5023584;28;20029;-79
2022/09/24 11:18:23;;;;;;;8.02;2.50;;;;;;;;;;5024879;28;20040;-79
2022/09/24 11:20:55;;;;;;;4.00;2.47;;;;;;;;;;5025737;28;20056;-79
2022/09/24 11:23:21;;;;;;;;;;;;;;;;;;5035586;28;20013;-79
2022/09/24 11:25:53;;;;;;;4.63;2.30;;;;;;;;;;5034244;28;19928;-79
2022/09/24 11:28:32;;;;;;;4.68;2.08;;;;;;;;;;5024335;28;20537;-77
2022/09/24 11:31:01;;;;;;;4.53;2.17;;;;;;;;;;5025148;28;20045;-79
2022/09/24 11:33:30;;;;;;;4.40;2.40;;;;;;;;;;5027951;28;20032;-79
2022/09/24 11:35:59;;;;;;;4.90;2.47;;;;;;;;;;5031977;28;20117;-79
2022/09/24 11:38:43;;;;;;;5.53;1.88;;;;;;;;;;5032072;28;20821;-79
2022/09/24 11:41:22;;;;;;;5.07;2.47;;;;;;;;;;5025865;28;20067;-79
2022/09/24 11:44:10;;;;;;;5.65;1.92;;;;;;;;;;5029083;28;20603;-80
2022/09/24 11:46:44;;;;;;;4.20;2.70;;;;;;;;;;5027962;28;20041;-79
2022/09/24 11:49:39;;;;;;;4.25;2.40;;;;;;;;;;5024306;28;20084;-80
2022/09/24 11:52:07;;;;;;;3.75;2.45;;;;;;;;;;5045966;28;20037;-79
2022/09/24 11:54:46;;;;;;;3.85;2.38;;;;;;;;;;5024603;28;20065;-80
2022/09/24 11:57:19;;;;;;;6.60;2.40;;;;;;;;;;5018084;28;20064;-80
2022/09/24 11:59:51;;;;;;;5.15;2.70;;;;;;;;;;5021736;28;20071;-80
2022/09/24 12:02:18;;;;;;;;;;;;;;;;;;5025019;28;20053;-80
2022/09/24 12:04:56;;;;;;;4.32;2.20;;;;;;;;;;5023941;28;19968;-79
2022/09/24 12:07:34;;;;;;;6.15;2.80;;;;;;;;;;5035891;28;20116;-79
2022/09/24 12:10:00;;;;;;;7.15;2.72;;;;;;;;;;5029810;28;20463;-79
2022/09/24 12:12:30;;;;;;;3.90;2.38;;;;;;;;;;5026632;28;20080;-80
2022/09/24 12:15:02;;;;;;;4.30;2.15;;;;;;;;;;5034175;28;20030;-80
2022/09/24 12:17:27;;;;;;;;;;;;;;;;;;5022820;28;20053;-79
2022/09/24 12:20:00;;;;;;;3.95;2.03;;;;;;;;;;5018920;28;19912;-79
2022/09/24 12:22:26;;;;;;;4.68;1.95;;;;;;;;;;5023933;28;20033;-79
2022/09/24 12:24:55;;;;;;;3.80;1.80;;;;;;;;;;5021311;28;20069;-80
2022/09/24 12:27:33;;;;;;;3.53;2.03;;;;;;;;;;5026708;28;20100;-79
2022/09/24 12:32:53;;;;;;;3.55;1.60;;;;;;;;;;5032878;28;20155;-80
2022/09/24 12:35:28;;;;;;;3.00;1.70;;;;;;;;;;5026537;28;20084;-79
2022/09/24 12:37:58;;;;;;;4.50;1.38;;;;;;;;;;5028224;28;20037;-80
2022/09/24 12:40:43;;;;;;;2.58;1.45;;;;;;;;;;5020082;28;20061;-80
2022/09/24 12:43:24;;;;;;;3.80;1.15;;;;;;;;;;5040424;28;20096;-79
2022/09/24 12:45:54;;;;;;;2.80;1.58;;;;;;;;;;5025972;28;20038;-80
2022/09/24 12:48:21;;;;;;;3.95;1.40;;;;;;;;;;5028145;28;20028;-79
2022/09/24 12:50:55;;;;;;;5.72;1.30;;;;;;;;;;5020844;28;20531;-80
2022/09/24 12:53:24;;;;;;;3.17;1.48;;;;;;;;;;5029463;28;20044;-79
2022/09/24 12:55:50;;;;;;;4.10;1.40;;;;;;;;;;5031190;28;20121;-79
2022/09/24 12:58:48;;;;;;;2.30;1.23;;;;;;;;;;5026279;28;20021;-80
2022/09/24 13:01:26;;;;;;;2.95;1.25;;;;;;;;;;5040187;28;20394;-80
2022/09/24 13:04:10;;;;;;;3.55;2.10;;;;;;;;;;5026856;28;20069;-78
2022/09/24 13:06:37;;;;;;;4.03;1.85;;;;;;;;;;5022467;28;20032;-80
2022/09/24 13:09:22;;;;;;;2.92;1.52;;;;;;;;;;5024027;28;20053;-80
2022/09/24 13:11:48;;;;;;;3.15;1.45;;;;;;;;;;5021241;28;20070;-79
2022/09/24 13:14:14;;;;;;;3.28;1.42;;;;;;;;;;5024038;28;20529;-80
2022/09/24 13:16:41;;;;;;;5.05;1.98;;;;;;;;;;5032176;28;20037;-79
2022/09/24 13:19:28;;;;;;;2.92;1.50;;;;;;;;;;5027142;28;20036;-80
2022/09/24 13:21:56;;;;;;;4.55;1.98;;;;;;;;;;5018507;28;20065;-80
2022/09/24 13:24:29;;;;;;;4.18;1.80;;;;;;;;;;5026905;28;20069;-79
2022/09/24 13:27:08;;;;;;;5.80;2.10;;;;;;;;;;5024333;28;20045;-80
2022/09/24 13:29:38;;;;;;;4.20;2.25;;;;;;;;;;5027799;28;20022;-79
2022/09/24 13:32:04;;;;;;;6.13;3.05;;;;;;;;;;5017581;28;20506;-79
2022/09/24 13:34:31;;;;;;;5.13;1.95;;;;;;;;;;5024163;28;20120;-80
2022/09/24 13:37:11;;;;;;;3.22;1.70;;;;;;;;;;5021390;28;20083;-80
2022/09/24 13:39:37;;;;;;;5.05;2.15;;;;;;;;;;5026575;28;20029;-80
2022/09/24 13:42:18;;;;;;;9.70;2.42;;;;;;;;;;5039675;28;20057;-80
2022/09/24 13:44:58;;;;;;;3.80;1.70;;;;;;;;;;5022671;28;20037;-80
2022/09/24 13:47:35;;;;;;;3.63;1.70;;;;;;;;;;5024919;28;20028;-80
2022/09/24 13:50:16;;;;;;;3.75;1.55;;;;;;;;;;5022930;28;20029;-80
2022/09/24 13:53:01;;;;;;;4.00;1.50;;;;;;;;;;5031762;28;20029;-80
2022/09/24 13:55:38;;;;;;;4.88;1.63;;;;;;;;;;5028038;28;20082;-80
2022/09/24 13:58:04;;;;;;;4.82;1.58;;;;;;;;;;5026323;28;20038;-80
2022/09/24 14:00:31;;;;;;;3.45;1.35;;;;;;;;;;5020156;28;20630;-79
2022/09/24 14:03:15;;;;;;;2.95;1.30;;;;;;;;;;5029368;28;20061;-79
2022/09/24 14:05:42;;;;;;;2.15;1.20;;;;;;;;;;5023953;28;20439;-80
2022/09/24 14:08:12;;;;;;;2.60;1.38;;;;;;;;;;5023378;28;20037;-79
2022/09/24 14:10:39;;;;;;;2.10;1.13;;;;;;;;;;5025106;28;21607;-79
2022/09/24 14:13:18;;;;;;;2.92;1.15;;;;;;;;;;5027363;28;20653;-79
2022/09/24 14:15:57;;;;;;;9.18;1.75;;;;;;;;;;5028672;28;20057;-80
2022/09/24 14:18:23;;;;;;;3.70;1.10;;;;;;;;;;5034413;28;20029;-79
2022/09/24 14:21:03;;;;;;;4.50;1.38;;;;;;;;;;5019041;28;20024;-79
2022/09/24 14:23:31;;;;;;;4.22;1.73;;;;;;;;;;5026218;28;20025;-79
2022/09/24 14:25:57;;;;;;;7.43;2.38;;;;;;;;;;5018927;28;20501;-79
2022/09/24 14:28:24;;;;;;;5.10;2.00;;;;;;;;;;5022695;28;20144;-79
2022/09/24 14:30:52;;;;;;;6.68;2.05;;;;;;;;;;5025899;28;20025;-79
2022/09/24 14:33:20;;;;;;;5.47;2.20;;;;;;;;;;5017717;28;20034;-79
2022/09/24 14:35:47;;;;;;;5.78;1.55;;;;;;;;;;5021540;28;20030;-80
2022/09/24 14:38:16;;;;;;;5.20;1.73;;;;;;;;;;5015150;28;20096;-79
2022/09/24 14:40:46;;;;;;;3.35;1.30;;;;;;;;;;5029536;28;20041;-79
2022/09/24 14:43:20;;;;;;;3.75;1.20;;;;;;;;;;5023230;28;20103;-78
2022/09/24 14:45:48;;;;;;;4.18;0.95;;;;;;;;;;5028889;28;20554;-79
2022/09/24 14:48:20;;;;;;;4.13;1.10;;;;;;;;;;5025054;28;20076;-78
2022/09/24 14:50:46;;;;;;;3.47;1.15;;;;;;;;;;5028677;28;20033;-79
2022/09/24 14:53:24;;;;;;;2.78;0.98;;;;;;;;;;5030593;28;20025;-79
2022/09/24 14:55:50;;;;;;;3.70;1.00;;;;;;;;;;5032644;28;20462;-79
2022/09/24 14:58:25;;;;;;;6.40;1.02;;;;;;;;;;5029873;28;20026;-79
2022/09/24 15:00:56;;;;;;;3.33;1.25;;;;;;;;;;5008946;28;20033;-79
2022/09/24 15:03:28;;;;;;;3.20;1.20;;;;;;;;;;5029961;28;20030;-79
2022/09/24 15:06:13;;;;;;;4.45;0.73;;;;;;;;;;5037738;28;20080;-79
2022/09/24 15:08:40;;;;;;;3.38;1.20;;;;;;;;;;5017334;28;20075;-79
2022/09/24 15:11:06;;;;;;;5.53;1.20;;;;;;;;;;5028000;28;20033;-78